createdAt,value
2018-01-08T00:00:27.020Z,1017.36
2018-01-08T00:01:27.034Z,1017.27
2018-01-08T00:02:27.041Z,1017.34
2018-01-08T00:03:27.054Z,1017.28
2018-01-08T00:04:27.067Z,1017.26
2018-01-08T00:05:27.078Z,1017.28
2018-01-08T00:06:27.086Z,1017.29
2018-01-08T00:07:27.097Z,1017.29
2018-01-08T00:08:27.109Z,1017.31
2018-01-08T00:09:27.120Z,1017.27
2018-01-08T00:10:27.132Z,1017.3
2018-01-08T00:11:27.142Z,1017.31
2018-01-08T00:12:27.154Z,1017.29
2018-01-08T00:13:27.164Z,1017.32
2018-01-08T00:14:27.184Z,1017.27
2018-01-08T00:15:27.188Z,1017.28
2018-01-08T00:16:27.198Z,1017.24
2018-01-08T00:17:27.209Z,1017.23
2018-01-08T00:18:27.219Z,1017.24
2018-01-08T00:19:27.232Z,1017.23
2018-01-08T00:20:27.244Z,1017.3
2018-01-08T00:21:27.259Z,1017.28
2018-01-08T00:22:27.265Z,1017.25
2018-01-08T00:23:27.275Z,1017.3
2018-01-08T00:24:27.286Z,1017.31
2018-01-08T00:25:27.297Z,1017.3
2018-01-08T00:26:27.309Z,1017.3
2018-01-08T00:27:27.320Z,1017.28
2018-01-08T00:28:27.332Z,1017.27
2018-01-08T00:29:27.342Z,1017.32
2018-01-08T00:30:27.353Z,1017.27
2018-01-08T00:31:27.365Z,1017.29
2018-01-08T00:32:27.375Z,1017.31
2018-01-08T00:33:27.386Z,1017.29
2018-01-08T00:34:27.397Z,1017.34
2018-01-08T00:35:27.408Z,1017.31
2018-01-08T00:36:27.419Z,1017.34
2018-01-08T00:37:27.431Z,1017.36
2018-01-08T00:38:27.442Z,1017.31
2018-01-08T00:39:27.452Z,1017.33
2018-01-08T00:40:27.466Z,1017.31
2018-01-08T00:41:27.475Z,1017.28
2018-01-08T00:42:27.486Z,1017.32
2018-01-08T00:43:27.496Z,1017.34
2018-01-08T00:44:27.508Z,1017.31
2018-01-08T00:45:27.522Z,1017.28
2018-01-08T00:46:27.530Z,1017.3
2018-01-08T00:47:27.541Z,1017.28
2018-01-08T00:48:27.551Z,1017.29
2018-01-08T00:49:27.562Z,1017.33
2018-01-08T00:50:27.574Z,1017.34
2018-01-08T00:51:27.584Z,1017.36
2018-01-08T00:52:27.596Z,1017.35
2018-01-08T00:53:27.607Z,1017.37
2018-01-08T00:54:27.619Z,1017.39
2018-01-08T00:55:27.629Z,1017.4
2018-01-08T00:56:27.641Z,1017.38
2018-01-08T00:57:27.650Z,1017.34
2018-01-08T00:58:27.666Z,1017.34
2018-01-08T00:59:27.674Z,1017.33
2018-01-08T01:00:27.684Z,1017.32
2018-01-08T01:01:27.695Z,1017.33
2018-01-08T01:02:27.708Z,1017.35
2018-01-08T01:03:27.719Z,1017.35
2018-01-08T01:04:27.730Z,1017.39
2018-01-08T01:05:27.740Z,1017.4
2018-01-08T01:06:27.750Z,1017.36
2018-01-08T01:07:27.762Z,1017.37
2018-01-08T01:08:27.773Z,1017.36
2018-01-08T01:09:27.783Z,1017.36
2018-01-08T01:10:27.794Z,1017.4
2018-01-08T01:11:27.807Z,1017.38
2018-01-08T01:12:27.816Z,1017.42
2018-01-08T01:13:27.828Z,1017.43
2018-01-08T01:14:27.839Z,1017.43
2018-01-08T01:15:27.852Z,1017.43
2018-01-08T01:16:27.860Z,1017.42
2018-01-08T01:17:27.870Z,1017.42
2018-01-08T01:18:27.882Z,1017.39
2018-01-08T01:19:27.892Z,1017.39
2018-01-08T01:20:27.906Z,1017.4
2018-01-08T01:21:27.920Z,1017.37
2018-01-08T01:22:27.928Z,1017.41
2018-01-08T01:23:27.937Z,1017.39
2018-01-08T01:24:27.948Z,1017.4
2018-01-08T01:25:27.960Z,1017.38
2018-01-08T01:26:27.970Z,1017.36
2018-01-08T01:27:27.981Z,1017.34
2018-01-08T01:28:27.994Z,1017.32
2018-01-08T01:29:28.005Z,1017.33
2018-01-08T01:30:28.018Z,1017.32
2018-01-08T01:31:28.026Z,1017.31
2018-01-08T01:32:28.038Z,1017.31
2018-01-08T01:33:28.050Z,1017.3
2018-01-08T01:34:28.066Z,1017.23
2018-01-08T01:35:28.073Z,1017.25
2018-01-08T01:36:28.081Z,1017.23
2018-01-08T01:37:28.091Z,1017.24
2018-01-08T01:38:28.103Z,1017.26
2018-01-08T01:39:28.120Z,1017.26
2018-01-08T01:40:28.125Z,1017.24
2018-01-08T01:41:28.134Z,1017.24
2018-01-08T01:42:28.146Z,1017.28
2018-01-08T01:43:28.157Z,1017.26
2018-01-08T01:44:28.169Z,1017.2
2018-01-08T01:45:28.184Z,1017.22
2018-01-08T01:46:28.240Z,1017.21
2018-01-08T01:47:28.201Z,1017.23
2018-01-08T01:48:28.212Z,1017.19
2018-01-08T01:49:28.222Z,1017.17
2018-01-08T01:50:28.234Z,1017.15
2018-01-08T01:51:28.245Z,1017.17
2018-01-08T01:52:28.255Z,1017.17
2018-01-08T01:53:28.268Z,1017.21
2018-01-08T01:54:28.277Z,1017.24
2018-01-08T01:55:28.291Z,1017.19
2018-01-08T01:56:28.299Z,1017.27
2018-01-08T01:57:28.309Z,1017.25
2018-01-08T01:58:28.321Z,1017.23
2018-01-08T01:59:28.331Z,1017.27
2018-01-08T02:00:28.343Z,1017.28
2018-01-08T02:01:28.356Z,1017.26
2018-01-08T02:02:28.366Z,1017.29
2018-01-08T02:03:28.376Z,1017.32
2018-01-08T02:04:28.387Z,1017.3
2018-01-08T02:05:28.398Z,1017.34
2018-01-08T02:06:28.410Z,1017.32
2018-01-08T02:07:28.420Z,1017.35
2018-01-08T02:08:28.430Z,1017.37
2018-01-08T02:09:28.441Z,1017.38
2018-01-08T02:10:28.452Z,1017.39
2018-01-08T02:11:28.463Z,1017.41
2018-01-08T02:12:28.474Z,1017.38
2018-01-08T02:13:28.485Z,1017.34
2018-01-08T02:14:28.495Z,1017.33
2018-01-08T02:15:28.507Z,1017.33
2018-01-08T02:16:28.519Z,1017.37
2018-01-08T02:17:28.529Z,1017.36
2018-01-08T02:18:28.542Z,1017.4
2018-01-08T02:19:28.550Z,1017.41
2018-01-08T02:20:28.561Z,1017.32
2018-01-08T02:21:28.571Z,1017.33
2018-01-08T02:22:28.583Z,1017.37
2018-01-08T02:23:28.594Z,1017.33
2018-01-08T02:24:28.605Z,1017.33
2018-01-08T02:25:28.620Z,1017.31
2018-01-08T02:26:28.626Z,1017.31
2018-01-08T02:27:28.637Z,1017.35
2018-01-08T02:28:28.649Z,1017.36
2018-01-08T02:29:28.658Z,1017.36
2018-01-08T02:30:28.670Z,1017.39
2018-01-08T02:31:28.682Z,1017.35
2018-01-08T02:32:28.691Z,1017.33
2018-01-08T02:33:28.703Z,1017.37
2018-01-08T02:34:28.714Z,1017.33
2018-01-08T02:35:28.725Z,1017.37
2018-01-08T02:36:28.735Z,1017.35
2018-01-08T02:37:28.747Z,1017.3
2018-01-08T02:38:28.759Z,1017.34
2018-01-08T02:39:28.769Z,1017.34
2018-01-08T02:40:28.780Z,1017.34
2018-01-08T02:41:28.790Z,1017.31
2018-01-08T02:42:28.802Z,1017.3
2018-01-08T02:43:28.812Z,1017.27
2018-01-08T02:44:28.823Z,1017.28
2018-01-08T02:45:28.838Z,1017.28
2018-01-08T02:46:28.844Z,1017.32
2018-01-08T02:47:28.854Z,1017.35
2018-01-08T02:48:28.867Z,1017.33
2018-01-08T02:49:28.877Z,1017.32
2018-01-08T02:50:28.889Z,1017.33
2018-01-08T02:51:28.900Z,1017.33
2018-01-08T02:52:28.909Z,1017.34
2018-01-08T02:53:28.929Z,1017.38
2018-01-08T02:54:28.931Z,1017.33
2018-01-08T02:55:28.944Z,1017.37
2018-01-08T02:56:28.952Z,1017.35
2018-01-08T02:57:28.963Z,1017.33
2018-01-08T02:58:28.973Z,1017.38
2018-01-08T02:59:28.986Z,1017.4
2018-01-08T03:00:28.998Z,1017.44
2018-01-08T03:01:29.008Z,1017.43
2018-01-08T03:02:29.018Z,1017.39
2018-01-08T03:03:29.031Z,1017.42
2018-01-08T03:04:29.040Z,1017.43
2018-01-08T03:05:29.050Z,1017.48
2018-01-08T03:06:29.062Z,1017.46
2018-01-08T03:07:29.073Z,1017.45
2018-01-08T03:08:29.083Z,1017.46
2018-01-08T03:09:29.092Z,1017.46
2018-01-08T03:10:29.105Z,1017.44
2018-01-08T03:11:29.117Z,1017.41
2018-01-08T03:12:29.127Z,1017.41
2018-01-08T03:13:29.137Z,1017.44
2018-01-08T03:14:29.148Z,1017.43
2018-01-08T03:15:29.159Z,1017.47
2018-01-08T03:16:29.169Z,1017.49
2018-01-08T03:17:29.180Z,1017.42
2018-01-08T03:18:29.191Z,1017.44
2018-01-08T03:19:29.204Z,1017.45
2018-01-08T03:20:29.213Z,1017.47
2018-01-08T03:21:29.224Z,1017.47
2018-01-08T03:22:29.235Z,1017.49
2018-01-08T03:23:29.244Z,1017.5
2018-01-08T03:24:29.255Z,1017.48
2018-01-08T03:25:29.266Z,1017.47
2018-01-08T03:26:29.278Z,1017.5
2018-01-08T03:27:29.288Z,1017.53
2018-01-08T03:28:29.300Z,1017.47
2018-01-08T03:29:29.310Z,1017.52
2018-01-08T03:30:29.326Z,1017.5
2018-01-08T03:31:29.332Z,1017.5
2018-01-08T03:32:29.342Z,1017.5
2018-01-08T03:33:29.353Z,1017.53
2018-01-08T03:34:29.363Z,1017.53
2018-01-08T03:35:29.379Z,1017.56
2018-01-08T03:36:29.386Z,1017.54
2018-01-08T03:37:29.397Z,1017.47
2018-01-08T03:38:29.406Z,1017.51
2018-01-08T03:39:29.418Z,1017.47
2018-01-08T03:40:29.428Z,1017.47
2018-01-08T03:41:29.440Z,1017.48
2018-01-08T03:42:29.453Z,1017.5
2018-01-08T03:43:29.461Z,1017.52
2018-01-08T03:44:29.472Z,1017.52
2018-01-08T03:45:29.482Z,1017.55
2018-01-08T03:46:29.496Z,1017.57
2018-01-08T03:47:29.504Z,1017.54
2018-01-08T03:48:29.517Z,1017.48
2018-01-08T03:49:29.528Z,1017.53
2018-01-08T03:50:29.536Z,1017.56
2018-01-08T03:51:29.547Z,1017.55
2018-01-08T03:52:29.557Z,1017.55
2018-01-08T03:53:29.568Z,1017.49
2018-01-08T03:54:29.579Z,1017.48
2018-01-08T03:55:29.590Z,1017.47
2018-01-08T03:56:29.600Z,1017.49
2018-01-08T03:57:29.611Z,1017.47
2018-01-08T03:58:29.622Z,1017.48
2018-01-08T03:59:29.634Z,1017.49
2018-01-08T04:00:29.643Z,1017.47
2018-01-08T04:01:29.657Z,1017.48
2018-01-08T04:02:29.665Z,1017.49
2018-01-08T04:03:29.676Z,1017.46
2018-01-08T04:04:29.689Z,1017.48
2018-01-08T04:05:29.697Z,1017.48
2018-01-08T04:06:29.719Z,1017.46
2018-01-08T04:07:29.718Z,1017.45
2018-01-08T04:08:29.729Z,1017.49
2018-01-08T04:09:29.740Z,1017.46
2018-01-08T04:10:29.753Z,1017.45
2018-01-08T04:11:29.762Z,1017.52
2018-01-08T04:12:29.822Z,1017.51
2018-01-08T04:13:29.783Z,1017.46
2018-01-08T04:14:29.794Z,1017.47
2018-01-08T04:15:29.806Z,1017.47
2018-01-08T04:16:29.815Z,1017.45
2018-01-08T04:17:29.877Z,1017.49
2018-01-08T04:18:29.838Z,1017.47
2018-01-08T04:19:29.849Z,1017.48
2018-01-08T04:20:29.858Z,1017.45
2018-01-08T04:21:29.869Z,1017.45
2018-01-08T04:22:29.879Z,1017.42
2018-01-08T04:23:29.890Z,1017.44
2018-01-08T04:24:29.900Z,1017.45
2018-01-08T04:25:29.911Z,1017.47
2018-01-08T04:26:29.921Z,1017.44
2018-01-08T04:27:29.932Z,1017.43
2018-01-08T04:28:29.947Z,1017.46
2018-01-08T04:29:29.953Z,1017.44
2018-01-08T04:30:29.964Z,1017.48
2018-01-08T04:31:29.977Z,1017.49
2018-01-08T04:32:30.038Z,1017.53
2018-01-08T04:33:29.996Z,1017.52
2018-01-08T04:34:30.010Z,1017.51
2018-01-08T04:35:30.020Z,1017.56
2018-01-08T04:36:30.030Z,1017.6
2018-01-08T04:37:30.046Z,1017.61
2018-01-08T04:38:30.051Z,1017.64
2018-01-08T04:39:30.062Z,1017.68
2018-01-08T04:40:30.072Z,1017.69
2018-01-08T04:41:30.084Z,1017.69
2018-01-08T04:42:30.096Z,1017.7
2018-01-08T04:43:30.105Z,1017.75
2018-01-08T04:44:30.115Z,1017.69
2018-01-08T04:45:30.126Z,1017.69
2018-01-08T04:46:30.137Z,1017.69
2018-01-08T04:47:30.150Z,1017.73
2018-01-08T04:48:30.164Z,1017.75
2018-01-08T04:49:30.169Z,1017.76
2018-01-08T04:50:30.180Z,1017.78
2018-01-08T04:51:30.190Z,1017.8
2018-01-08T04:52:30.202Z,1017.79
2018-01-08T04:53:30.211Z,1017.81
2018-01-08T04:54:30.224Z,1017.82
2018-01-08T04:55:30.233Z,1017.86
2018-01-08T04:56:30.243Z,1017.87
2018-01-08T04:57:30.253Z,1017.88
2018-01-08T04:58:30.264Z,1017.91
2018-01-08T04:59:30.275Z,1017.9
2018-01-08T05:00:30.286Z,1017.94
2018-01-08T05:01:30.298Z,1017.93
2018-01-08T05:02:30.306Z,1017.91
2018-01-08T05:03:30.317Z,1017.93
2018-01-08T05:04:30.328Z,1017.9
2018-01-08T05:05:30.339Z,1017.9
2018-01-08T05:06:30.349Z,1017.91
2018-01-08T05:07:30.359Z,1017.88
2018-01-08T05:08:30.370Z,1017.97
2018-01-08T05:09:30.381Z,1017.88
2018-01-08T05:10:30.391Z,1017.92
2018-01-08T05:11:30.415Z,1017.93
2018-01-08T05:12:30.464Z,1017.86
2018-01-08T05:13:30.423Z,1017.89
2018-01-08T05:14:30.434Z,1017.87
2018-01-08T05:15:30.445Z,1017.89
2018-01-08T05:16:30.456Z,1017.86
2018-01-08T05:17:30.465Z,1017.94
2018-01-08T05:18:30.478Z,1017.93
2018-01-08T05:19:30.487Z,1017.92
2018-01-08T05:20:30.497Z,1017.95
2018-01-08T05:21:30.508Z,1017.97
2018-01-08T05:22:30.519Z,1017.95
2018-01-08T05:23:30.531Z,1017.93
2018-01-08T05:24:30.542Z,1017.91
2018-01-08T05:25:30.552Z,1017.9
2018-01-08T05:26:30.563Z,1017.93
2018-01-08T05:27:30.576Z,1017.97
2018-01-08T05:28:30.582Z,1017.94
2018-01-08T05:29:30.593Z,1017.98
2018-01-08T05:30:30.603Z,1017.99
2018-01-08T05:31:30.614Z,1017.97
2018-01-08T05:32:30.624Z,1017.96
2018-01-08T05:33:30.635Z,1017.97
2018-01-08T05:34:30.645Z,1018.05
2018-01-08T05:35:30.656Z,1017.99
2018-01-08T05:36:30.673Z,1017.96
2018-01-08T05:37:30.680Z,1018
2018-01-08T05:38:30.688Z,1018.01
2018-01-08T05:39:30.699Z,1017.98
2018-01-08T05:40:30.713Z,1018.01
2018-01-08T05:41:30.720Z,1017.93
2018-01-08T05:42:30.730Z,1018.01
2018-01-08T05:43:30.740Z,1017.98
2018-01-08T05:44:30.752Z,1018
2018-01-08T05:45:30.762Z,1017.98
2018-01-08T05:46:30.774Z,1017.99
2018-01-08T05:47:30.783Z,1017.98
2018-01-08T05:48:30.794Z,1018.01
2018-01-08T05:49:30.806Z,1018.03
2018-01-08T05:50:30.815Z,1018.07
2018-01-08T05:51:30.826Z,1018.04
2018-01-08T05:52:30.843Z,1018.02
2018-01-08T05:53:30.848Z,1018.08
2018-01-08T05:54:30.859Z,1018.03
2018-01-08T05:55:30.870Z,1018.04
2018-01-08T05:56:30.878Z,1018.02
2018-01-08T05:57:30.889Z,1017.99
2018-01-08T05:58:30.900Z,1018.04
2018-01-08T05:59:30.911Z,1018.02
2018-01-08T06:00:30.921Z,1017.97
2018-01-08T06:01:30.931Z,1018.01
2018-01-08T06:02:30.941Z,1018.03
2018-01-08T06:03:30.952Z,1018.06
2018-01-08T06:04:30.964Z,1018.04
2018-01-08T06:05:30.973Z,1018.05
2018-01-08T06:06:30.989Z,1018.09
2018-01-08T06:07:30.995Z,1018.1
2018-01-08T06:08:31.008Z,1018.11
2018-01-08T06:09:31.016Z,1018.1
2018-01-08T06:10:31.028Z,1018.14
2018-01-08T06:11:31.041Z,1018.14
2018-01-08T06:12:31.048Z,1018.15
2018-01-08T06:13:31.059Z,1018.13
2018-01-08T06:14:31.068Z,1018.18
2018-01-08T06:15:31.078Z,1018.17
2018-01-08T06:16:31.090Z,1018.11
2018-01-08T06:17:31.099Z,1018.16
2018-01-08T06:18:31.111Z,1018.16
2018-01-08T06:19:31.121Z,1018.15
2018-01-08T06:20:31.132Z,1018.17
2018-01-08T06:21:31.142Z,1018.17
2018-01-08T06:22:31.152Z,1018.19
2018-01-08T06:23:31.163Z,1018.13
2018-01-08T06:24:31.176Z,1018.18
2018-01-08T06:25:31.186Z,1018.23
2018-01-08T06:26:31.194Z,1018.24
2018-01-08T06:27:31.205Z,1018.22
2018-01-08T06:28:31.216Z,1018.26
2018-01-08T06:29:31.227Z,1018.24
2018-01-08T06:30:31.237Z,1018.21
2018-01-08T06:31:31.253Z,1018.25
2018-01-08T06:32:31.258Z,1018.23
2018-01-08T06:33:31.267Z,1018.21
2018-01-08T06:34:31.299Z,1018.23
2018-01-08T06:35:31.295Z,1018.19
2018-01-08T06:36:31.300Z,1018.27
2018-01-08T06:37:31.314Z,1018.3
2018-01-08T06:38:31.321Z,1018.24
2018-01-08T06:39:31.330Z,1018.3
2018-01-08T06:40:31.343Z,1018.35
2018-01-08T06:41:31.352Z,1018.35
2018-01-08T06:42:31.363Z,1018.38
2018-01-08T06:43:31.374Z,1018.37
2018-01-08T06:44:31.383Z,1018.34
2018-01-08T06:45:31.394Z,1018.38
2018-01-08T06:46:31.405Z,1018.36
2018-01-08T06:47:31.415Z,1018.38
2018-01-08T06:48:31.431Z,1018.4
2018-01-08T06:49:31.436Z,1018.42
2018-01-08T06:50:31.449Z,1018.45
2018-01-08T06:51:31.460Z,1018.41
2018-01-08T06:52:31.468Z,1018.43
2018-01-08T06:53:31.479Z,1018.45
2018-01-08T06:54:31.489Z,1018.44
2018-01-08T06:55:31.498Z,1018.41
2018-01-08T06:56:31.513Z,1018.43
2018-01-08T06:57:31.520Z,1018.4
2018-01-08T06:58:31.533Z,1018.36
2018-01-08T06:59:31.540Z,1018.35
2018-01-08T07:00:31.551Z,1018.31
2018-01-08T07:01:31.562Z,1018.31
2018-01-08T07:02:31.576Z,1018.33
2018-01-08T07:03:31.583Z,1018.34
2018-01-08T07:04:31.594Z,1018.33
2018-01-08T07:05:31.603Z,1018.35
2018-01-08T07:06:31.613Z,1018.31
2018-01-08T07:07:31.624Z,1018.29
2018-01-08T07:08:31.685Z,1018.29
2018-01-08T07:09:31.646Z,1018.3
2018-01-08T07:10:31.657Z,1018.34
2018-01-08T07:11:31.668Z,1018.3
2018-01-08T07:12:31.677Z,1018.32
2018-01-08T07:13:31.688Z,1018.3
2018-01-08T07:14:31.699Z,1018.32
2018-01-08T07:15:31.712Z,1018.31
2018-01-08T07:16:31.718Z,1018.28
2018-01-08T07:17:31.733Z,1018.29
2018-01-08T07:18:31.739Z,1018.25
2018-01-08T07:19:31.750Z,1018.25
2018-01-08T07:20:31.766Z,1018.25
2018-01-08T07:21:31.772Z,1018.31
2018-01-08T07:22:31.782Z,1018.29
2018-01-08T07:23:31.792Z,1018.3
2018-01-08T07:24:31.808Z,1018.35
2018-01-08T07:25:31.812Z,1018.34
2018-01-08T07:26:31.822Z,1018.34
2018-01-08T07:27:31.834Z,1018.34
2018-01-08T07:28:31.900Z,1018.32
2018-01-08T07:29:31.856Z,1018.37
2018-01-08T07:30:31.867Z,1018.34
2018-01-08T07:31:31.876Z,1018.39
2018-01-08T07:32:31.885Z,1018.38
2018-01-08T07:33:31.896Z,1018.36
2018-01-08T07:34:31.912Z,1018.37
2018-01-08T07:35:31.918Z,1018.37
2018-01-08T07:36:31.931Z,1018.38
2018-01-08T07:37:31.939Z,1018.38
2018-01-08T07:38:31.951Z,1018.39
2018-01-08T07:39:31.962Z,1018.4
2018-01-08T07:40:31.973Z,1018.42
2018-01-08T07:41:31.982Z,1018.39
2018-01-08T07:42:31.998Z,1018.36
2018-01-08T07:43:32.000Z,1018.37
2018-01-08T07:44:32.014Z,1018.37
2018-01-08T07:45:32.024Z,1018.37
2018-01-08T07:46:32.037Z,1018.34
2018-01-08T07:47:32.045Z,1018.33
2018-01-08T07:48:32.056Z,1018.32
2018-01-08T07:49:32.066Z,1018.3
2018-01-08T07:50:32.080Z,1018.31
2018-01-08T07:51:32.088Z,1018.31
2018-01-08T07:52:32.098Z,1018.33
2018-01-08T07:53:32.109Z,1018.34
2018-01-08T07:54:32.163Z,1018.33
2018-01-08T07:55:32.129Z,1018.37
2018-01-08T07:56:32.140Z,1018.3
2018-01-08T07:57:32.150Z,1018.27
2018-01-08T07:58:32.198Z,1018.32
2018-01-08T07:59:32.171Z,1018.32
2018-01-08T08:00:32.182Z,1018.31
2018-01-08T08:01:32.192Z,1018.32
2018-01-08T08:02:32.204Z,1018.32
2018-01-08T08:03:32.218Z,1018.31
2018-01-08T08:04:32.224Z,1018.3
2018-01-08T08:05:32.237Z,1018.29
2018-01-08T08:06:32.244Z,1018.31
2018-01-08T08:07:32.257Z,1018.34
2018-01-08T08:08:32.270Z,1018.31
2018-01-08T08:09:32.283Z,1018.32
2018-01-08T08:10:32.287Z,1018.33
2018-01-08T08:11:32.299Z,1018.36
2018-01-08T08:12:32.308Z,1018.39
2018-01-08T08:13:32.324Z,1018.38
2018-01-08T08:14:32.332Z,1018.37
2018-01-08T08:15:32.341Z,1018.38
2018-01-08T08:16:32.350Z,1018.4
2018-01-08T08:17:32.361Z,1018.4
2018-01-08T08:18:32.374Z,1018.4
2018-01-08T08:19:32.385Z,1018.39
2018-01-08T08:20:32.392Z,1018.38
2018-01-08T08:21:32.404Z,1018.35
2018-01-08T08:22:32.414Z,1018.34
2018-01-08T08:23:32.423Z,1018.38
2018-01-08T08:24:32.435Z,1018.31
2018-01-08T08:25:32.447Z,1018.3
2018-01-08T08:26:32.459Z,1018.31
2018-01-08T08:27:32.467Z,1018.3
2018-01-08T08:28:32.477Z,1018.3
2018-01-08T08:29:32.488Z,1018.24
2018-01-08T08:30:32.498Z,1018.25
2018-01-08T08:31:32.509Z,1018.28
2018-01-08T08:32:32.522Z,1018.24
2018-01-08T08:33:32.530Z,1018.27
2018-01-08T08:34:32.540Z,1018.23
2018-01-08T08:35:32.552Z,1018.21
2018-01-08T08:36:32.561Z,1018.18
2018-01-08T08:37:32.572Z,1018.18
2018-01-08T08:38:32.582Z,1018.22
2018-01-08T08:39:32.594Z,1018.23
2018-01-08T08:40:32.606Z,1018.21
2018-01-08T08:41:32.613Z,1018.2
2018-01-08T08:42:32.630Z,1018.1
2018-01-08T08:43:32.636Z,1018.21
2018-01-08T08:44:32.646Z,1018.11
2018-01-08T08:45:32.656Z,1018.14
2018-01-08T08:46:32.666Z,1018.1
2018-01-08T08:47:32.677Z,1018.15
2018-01-08T08:48:32.687Z,1018.11
2018-01-08T08:49:32.700Z,1018.11
2018-01-08T08:50:32.710Z,1018.16
2018-01-08T08:51:32.719Z,1018.15
2018-01-08T08:52:32.730Z,1018.19
2018-01-08T08:53:32.741Z,1018.18
2018-01-08T08:54:32.751Z,1018.2
2018-01-08T08:55:32.762Z,1018.2
2018-01-08T08:56:32.772Z,1018.19
2018-01-08T08:57:32.783Z,1018.2
2018-01-08T08:58:32.793Z,1018.19
2018-01-08T08:59:32.804Z,1018.2
2018-01-08T09:00:32.813Z,1018.21
2018-01-08T09:01:32.826Z,1018.27
2018-01-08T09:02:32.834Z,1018.2
2018-01-08T09:03:32.848Z,1018.18
2018-01-08T09:04:32.856Z,1018.18
2018-01-08T09:05:32.867Z,1018.18
2018-01-08T09:06:32.879Z,1018.19
2018-01-08T09:07:32.893Z,1018.2
2018-01-08T09:08:32.900Z,1018.19
2018-01-08T09:09:32.913Z,1018.15
2018-01-08T09:10:32.925Z,1018.1
2018-01-08T09:11:32.930Z,1018.1
2018-01-08T09:12:32.942Z,1018.13
2018-01-08T09:13:32.965Z,1018.14
2018-01-08T09:14:33.013Z,1018.11
2018-01-08T09:15:32.972Z,1018.07
2018-01-08T09:16:32.986Z,1018.07
2018-01-08T09:17:32.994Z,1018.04
2018-01-08T09:18:33.005Z,1018.01
2018-01-08T09:19:33.015Z,1018.06
2018-01-08T09:20:33.026Z,1018.04
2018-01-08T09:21:33.038Z,1018.02
2018-01-08T09:22:33.049Z,1018.03
2018-01-08T09:23:33.066Z,1018.03
2018-01-08T09:24:33.072Z,1018.04
2018-01-08T09:25:33.079Z,1018.03
2018-01-08T09:26:33.090Z,1017.99
2018-01-08T09:27:33.114Z,1018.05
2018-01-08T09:28:33.112Z,1018.03
2018-01-08T09:29:33.121Z,1018.03
2018-01-08T09:30:33.132Z,1018.05
2018-01-08T09:31:33.147Z,1018.05
2018-01-08T09:32:33.154Z,1018.07
2018-01-08T09:33:33.204Z,1018.1
2018-01-08T09:34:33.198Z,1018.11
2018-01-08T09:35:33.186Z,1018.12
2018-01-08T09:36:33.195Z,1018.13
2018-01-08T09:37:33.206Z,1018.09
2018-01-08T09:38:33.218Z,1018.12
2018-01-08T09:39:33.254Z,1018.12
2018-01-08T09:40:33.238Z,1018.13
2018-01-08T09:41:33.299Z,1018.09
2018-01-08T09:42:33.264Z,1018.07
2018-01-08T09:43:33.316Z,1018.11
2018-01-08T09:44:33.282Z,1018.12
2018-01-08T09:45:33.292Z,1018.05
2018-01-08T09:46:33.331Z,1018.09
2018-01-08T09:47:33.312Z,1018.13
2018-01-08T09:48:33.323Z,1018.12
2018-01-08T09:49:33.353Z,1018.15
2018-01-08T09:50:33.346Z,1018.11
2018-01-08T09:51:33.354Z,1018.11
2018-01-08T09:52:33.368Z,1018.08
2018-01-08T09:53:33.392Z,1018.13
2018-01-08T09:54:33.389Z,1018.09
2018-01-08T09:55:33.400Z,1018.13
2018-01-08T09:56:33.434Z,1018.13
2018-01-08T09:57:33.452Z,1018.1
2018-01-08T09:58:33.435Z,1018.1
2018-01-08T09:59:33.447Z,1018.07
2018-01-08T10:00:33.453Z,1018.09
2018-01-08T10:01:33.462Z,1018.1
2018-01-08T10:02:33.476Z,1018.11
2018-01-08T10:03:33.484Z,1018.07
2018-01-08T10:04:33.495Z,1018.02
2018-01-08T10:05:33.507Z,1018.07
2018-01-08T10:06:33.516Z,1018.03
2018-01-08T10:07:33.527Z,1018.03
2018-01-08T10:08:33.538Z,1018.03
2018-01-08T10:09:33.549Z,1017.97
2018-01-08T10:10:33.561Z,1018.04
2018-01-08T10:11:33.571Z,1018.06
2018-01-08T10:12:33.582Z,1018.1
2018-01-08T10:13:33.619Z,1018.09
2018-01-08T10:14:33.602Z,1018.05
2018-01-08T10:15:33.614Z,1018.05
2018-01-08T10:16:33.623Z,1018.04
2018-01-08T10:17:33.636Z,1018.03
2018-01-08T10:18:33.648Z,1018.06
2018-01-08T10:19:33.659Z,1018.06
2018-01-08T10:20:33.666Z,1018.06
2018-01-08T10:21:33.679Z,1018.06
2018-01-08T10:22:33.690Z,1017.99
2018-01-08T10:23:33.702Z,1017.95
2018-01-08T10:24:33.711Z,1017.93
2018-01-08T10:25:33.723Z,1017.94
2018-01-08T10:26:33.733Z,1017.9
2018-01-08T10:27:33.743Z,1017.9
2018-01-08T10:28:33.755Z,1017.93
2018-01-08T10:29:33.768Z,1017.89
2018-01-08T10:30:33.779Z,1017.92
2018-01-08T10:31:33.788Z,1017.91
2018-01-08T10:32:33.800Z,1017.9
2018-01-08T10:33:33.810Z,1017.94
2018-01-08T10:34:33.821Z,1017.97
2018-01-08T10:35:33.831Z,1017.92
2018-01-08T10:36:33.849Z,1017.86
2018-01-08T10:37:33.856Z,1017.87
2018-01-08T10:38:33.866Z,1017.81
2018-01-08T10:39:33.876Z,1017.79
2018-01-08T10:40:33.887Z,1017.79
2018-01-08T10:41:33.904Z,1017.77
2018-01-08T10:42:33.909Z,1017.79
2018-01-08T10:43:33.920Z,1017.77
2018-01-08T10:44:33.931Z,1017.8
2018-01-08T10:45:33.942Z,1017.79
2018-01-08T10:46:33.953Z,1017.82
2018-01-08T10:47:33.965Z,1017.81
2018-01-08T10:48:33.975Z,1017.87
2018-01-08T10:49:33.986Z,1017.83
2018-01-08T10:50:34.000Z,1017.87
2018-01-08T10:51:34.009Z,1017.88
2018-01-08T10:52:34.075Z,1017.83
2018-01-08T10:53:34.032Z,1017.85
2018-01-08T10:54:34.045Z,1017.76
2018-01-08T10:55:34.056Z,1017.76
2018-01-08T10:56:34.065Z,1017.74
2018-01-08T10:57:34.077Z,1017.72
2018-01-08T10:58:34.088Z,1017.73
2018-01-08T10:59:34.101Z,1017.72
2018-01-08T11:00:34.160Z,1017.69
2018-01-08T11:01:34.121Z,1017.7
2018-01-08T11:02:34.171Z,1017.67
2018-01-08T11:03:34.144Z,1017.63
2018-01-08T11:04:34.154Z,1017.59
2018-01-08T11:05:34.175Z,1017.62
2018-01-08T11:06:34.176Z,1017.63
2018-01-08T11:07:34.187Z,1017.6
2018-01-08T11:08:34.199Z,1017.62
2018-01-08T11:09:34.211Z,1017.57
2018-01-08T11:10:34.222Z,1017.58
2018-01-08T11:11:34.244Z,1017.55
2018-01-08T11:12:34.243Z,1017.55
2018-01-08T11:13:34.273Z,1017.56
2018-01-08T11:14:34.269Z,1017.51
2018-01-08T11:15:34.377Z,1017.52
2018-01-08T11:16:34.292Z,1017.52
2018-01-08T11:17:34.299Z,1017.53
2018-01-08T11:18:34.310Z,1017.52
2018-01-08T11:19:34.322Z,1017.54
2018-01-08T11:20:34.384Z,1017.53
2018-01-08T11:21:34.344Z,1017.58
2018-01-08T11:22:34.357Z,1017.52
2018-01-08T11:23:34.368Z,1017.48
2018-01-08T11:24:34.380Z,1017.5
2018-01-08T11:25:34.441Z,1017.53
2018-01-08T11:26:34.406Z,1017.45
2018-01-08T11:27:34.411Z,1017.44
2018-01-08T11:28:34.422Z,1017.4
2018-01-08T11:29:34.434Z,1017.41
2018-01-08T11:30:34.445Z,1017.42
2018-01-08T11:31:34.457Z,1017.47
2018-01-08T11:32:34.468Z,1017.43
2018-01-08T11:33:34.482Z,1017.47
2018-01-08T11:34:34.495Z,1017.48
2018-01-08T11:35:34.503Z,1017.46
2018-01-08T11:36:34.514Z,1017.46
2018-01-08T11:37:34.528Z,1017.4
2018-01-08T11:38:34.536Z,1017.38
2018-01-08T11:39:34.548Z,1017.42
2018-01-08T11:40:34.558Z,1017.34
2018-01-08T11:41:34.570Z,1017.38
2018-01-08T11:42:34.582Z,1017.3
2018-01-08T11:43:34.592Z,1017.29
2018-01-08T11:44:34.605Z,1017.29
2018-01-08T11:45:34.615Z,1017.26
2018-01-08T11:46:34.629Z,1017.21
2018-01-08T11:47:34.639Z,1017.25
2018-01-08T11:48:34.650Z,1017.21
2018-01-08T11:49:34.663Z,1017.12
2018-01-08T11:50:34.673Z,1017.14
2018-01-08T11:51:34.683Z,1017.1
2018-01-08T11:52:34.695Z,1017.12
2018-01-08T11:53:34.707Z,1017.13
2018-01-08T11:54:34.732Z,1017.13
2018-01-08T11:55:34.730Z,1017.1
2018-01-08T11:56:34.741Z,1017.1
2018-01-08T11:57:34.753Z,1017.12
2018-01-08T11:58:34.765Z,1017.16
2018-01-08T11:59:34.787Z,1017.03
2018-01-08T12:00:34.787Z,1017.08
2018-01-08T12:01:34.798Z,1017.08
2018-01-08T12:02:34.810Z,1016.98
2018-01-08T12:03:34.822Z,1017.01
2018-01-08T12:04:34.833Z,1017
2018-01-08T12:05:34.845Z,1016.99
2018-01-08T12:06:34.855Z,1017.02
2018-01-08T12:07:34.868Z,1017.02
2018-01-08T12:08:34.879Z,1016.99